sensor_id;sensor_type;location;lat;lon;timestamp;P1;durP1;ratioP1;P2;durP2;ratioP2
66169;SDS011;66757;44.024;20.456;2023-06-22T00:01:09;16.13;;;14.52;;
66169;SDS011;66757;44.024;20.456;2023-06-22T00:03:34;17.13;;;14.88;;
66169;SDS011;66757;44.024;20.456;2023-06-22T00:06:00;14.43;;;13.13;;
66169;SDS011;66757;44.024;20.456;2023-06-22T00:08:25;14.35;;;12.82;;
66169;SDS011;66757;44.024;20.456;2023-06-22T00:10:51;15.65;;;13.50;;
66169;SDS011;66757;44.024;20.456;2023-06-22T00:13:16;15.63;;;14.05;;
66169;SDS011;66757;44.024;20.456;2023-06-22T00:15:43;14.80;;;13.38;;
66169;SDS011;66757;44.024;20.456;2023-06-22T00:18:08;15.15;;;13.55;;
66169;SDS011;66757;44.024;20.456;2023-06-22T00:20:35;17.10;;;13.73;;
66169;SDS011;66757;44.024;20.456;2023-06-22T00:23:04;15.60;;;13.90;;
66169;SDS011;66757;44.024;20.456;2023-06-22T00:25:34;16.70;;;13.85;;
66169;SDS011;66757;44.024;20.456;2023-06-22T00:28:01;13.70;;;12.38;;
66169;SDS011;66757;44.024;20.456;2023-06-22T00:30:27;14.65;;;13.15;;
66169;SDS011;66757;44.024;20.456;2023-06-22T00:32:53;15.65;;;14.02;;
66169;SDS011;66757;44.024;20.456;2023-06-22T00:35:18;14.45;;;12.95;;
66169;SDS011;66757;44.024;20.456;2023-06-22T00:37:44;14.45;;;13.05;;
66169;SDS011;66757;44.024;20.456;2023-06-22T00:40:10;18.95;;;14.05;;
66169;SDS011;66757;44.024;20.456;2023-06-22T00:42:37;19.20;;;15.00;;
66169;SDS011;66757;44.024;20.456;2023-06-22T00:45:04;15.85;;;14.20;;
66169;SDS011;66757;44.024;20.456;2023-06-22T00:47:30;21.88;;;14.80;;
66169;SDS011;66757;44.024;20.456;2023-06-22T00:49:55;18.73;;;14.27;;
66169;SDS011;66757;44.024;20.456;2023-06-22T00:52:24;16.27;;;14.52;;
66169;SDS011;66757;44.024;20.456;2023-06-22T00:54:54;15.35;;;13.85;;
66169;SDS011;66757;44.024;20.456;2023-06-22T00:57:21;15.10;;;13.55;;
66169;SDS011;66757;44.024;20.456;2023-06-22T00:59:53;15.02;;;13.52;;
66169;SDS011;66757;44.024;20.456;2023-06-22T01:02:19;15.65;;;14.15;;
66169;SDS011;66757;44.024;20.456;2023-06-22T01:04:44;15.38;;;13.13;;
66169;SDS011;66757;44.024;20.456;2023-06-22T01:12:21;17.17;;;14.70;;
66169;SDS011;66757;44.024;20.456;2023-06-22T01:14:52;16.52;;;14.82;;
66169;SDS011;66757;44.024;20.456;2023-06-22T01:17:23;16.25;;;14.55;;
66169;SDS011;66757;44.024;20.456;2023-06-22T01:19:51;17.52;;;13.85;;
66169;SDS011;66757;44.024;20.456;2023-06-22T01:22:22;15.75;;;14.15;;
66169;SDS011;66757;44.024;20.456;2023-06-22T01:27:28;15.90;;;13.73;;
66169;SDS011;66757;44.024;20.456;2023-06-22T01:30:02;15.93;;;14.38;;
66169;SDS011;66757;44.024;20.456;2023-06-22T01:32:31;16.55;;;14.80;;
66169;SDS011;66757;44.024;20.456;2023-06-22T01:34:58;17.27;;;15.35;;
66169;SDS011;66757;44.024;20.456;2023-06-22T01:37:26;18.00;;;15.63;;
66169;SDS011;66757;44.024;20.456;2023-06-22T01:39:53;17.05;;;15.38;;
66169;SDS011;66757;44.024;20.456;2023-06-22T01:42:20;18.60;;;16.75;;
66169;SDS011;66757;44.024;20.456;2023-06-22T01:44:47;18.55;;;16.63;;
66169;SDS011;66757;44.024;20.456;2023-06-22T01:47:13;21.75;;;16.48;;
66169;SDS011;66757;44.024;20.456;2023-06-22T01:49:39;18.70;;;16.38;;
66169;SDS011;66757;44.024;20.456;2023-06-22T01:52:06;16.63;;;14.90;;
66169;SDS011;66757;44.024;20.456;2023-06-22T01:54:32;17.67;;;15.88;;
66169;SDS011;66757;44.024;20.456;2023-06-22T01:56:58;21.85;;;14.90;;
66169;SDS011;66757;44.024;20.456;2023-06-22T01:59:34;17.42;;;13.77;;
66169;SDS011;66757;44.024;20.456;2023-06-22T02:02:04;17.05;;;14.18;;
66169;SDS011;66757;44.024;20.456;2023-06-22T02:04:43;19.35;;;13.82;;
66169;SDS011;66757;44.024;20.456;2023-06-22T02:07:13;16.48;;;14.85;;
66169;SDS011;66757;44.024;20.456;2023-06-22T02:09:45;14.43;;;12.93;;
66169;SDS011;66757;44.024;20.456;2023-06-22T02:12:13;15.57;;;14.05;;
66169;SDS011;66757;44.024;20.456;2023-06-22T02:14:43;17.45;;;14.15;;
66169;SDS011;66757;44.024;20.456;2023-06-22T02:17:11;14.90;;;13.40;;
66169;SDS011;66757;44.024;20.456;2023-06-22T02:19:37;19.55;;;14.00;;
66169;SDS011;66757;44.024;20.456;2023-06-22T02:22:05;17.60;;;14.40;;
66169;SDS011;66757;44.024;20.456;2023-06-22T02:24:31;16.88;;;14.43;;
66169;SDS011;66757;44.024;20.456;2023-06-22T02:26:58;16.20;;;13.77;;
66169;SDS011;66757;44.024;20.456;2023-06-22T02:29:25;16.17;;;14.63;;
66169;SDS011;66757;44.024;20.456;2023-06-22T02:31:52;16.05;;;14.45;;
66169;SDS011;66757;44.024;20.456;2023-06-22T02:34:17;16.58;;;14.98;;
66169;SDS011;66757;44.024;20.456;2023-06-22T02:36:46;16.38;;;14.05;;
66169;SDS011;66757;44.024;20.456;2023-06-22T02:39:22;17.15;;;14.30;;
66169;SDS011;66757;44.024;20.456;2023-06-22T02:41:49;20.15;;;14.50;;
66169;SDS011;66757;44.024;20.456;2023-06-22T02:44:15;17.35;;;14.95;;
66169;SDS011;66757;44.024;20.456;2023-06-22T02:46:41;16.30;;;13.93;;
66169;SDS011;66757;44.024;20.456;2023-06-22T02:49:06;16.63;;;13.73;;
66169;SDS011;66757;44.024;20.456;2023-06-22T02:51:33;16.52;;;14.93;;
66169;SDS011;66757;44.024;20.456;2023-06-22T02:53:59;15.88;;;14.32;;
66169;SDS011;66757;44.024;20.456;2023-06-22T02:56:25;18.17;;;14.60;;
66169;SDS011;66757;44.024;20.456;2023-06-22T02:58:51;16.35;;;14.75;;
66169;SDS011;66757;44.024;20.456;2023-06-22T03:01:17;17.90;;;14.98;;
66169;SDS011;66757;44.024;20.456;2023-06-22T03:03:48;16.90;;;15.10;;
66169;SDS011;66757;44.024;20.456;2023-06-22T03:06:13;16.30;;;14.63;;
66169;SDS011;66757;44.024;20.456;2023-06-22T03:08:39;15.48;;;13.68;;
66169;SDS011;66757;44.024;20.456;2023-06-22T03:11:04;17.00;;;14.43;;
66169;SDS011;66757;44.024;20.456;2023-06-22T03:13:29;16.67;;;14.98;;
66169;SDS011;66757;44.024;20.456;2023-06-22T03:15:55;16.42;;;14.82;;
66169;SDS011;66757;44.024;20.456;2023-06-22T03:18:20;16.13;;;14.43;;
66169;SDS011;66757;44.024;20.456;2023-06-22T03:20:47;17.05;;;15.25;;
66169;SDS011;66757;44.024;20.456;2023-06-22T03:23:12;16.35;;;14.63;;
66169;SDS011;66757;44.024;20.456;2023-06-22T03:25:38;17.90;;;14.90;;
66169;SDS011;66757;44.024;20.456;2023-06-22T03:28:04;19.25;;;15.63;;
66169;SDS011;66757;44.024;20.456;2023-06-22T03:30:30;17.65;;;15.23;;
66169;SDS011;66757;44.024;20.456;2023-06-22T03:32:55;19.10;;;15.90;;
66169;SDS011;66757;44.024;20.456;2023-06-22T03:35:21;19.77;;;16.77;;
66169;SDS011;66757;44.024;20.456;2023-06-22T03:37:46;18.35;;;16.45;;
66169;SDS011;66757;44.024;20.456;2023-06-22T03:40:12;17.20;;;15.32;;
66169;SDS011;66757;44.024;20.456;2023-06-22T03:42:37;17.98;;;15.60;;
66169;SDS011;66757;44.024;20.456;2023-06-22T03:45:03;16.83;;;15.07;;
66169;SDS011;66757;44.024;20.456;2023-06-22T03:47:29;15.52;;;13.93;;
66169;SDS011;66757;44.024;20.456;2023-06-22T03:49:55;17.73;;;14.10;;
66169;SDS011;66757;44.024;20.456;2023-06-22T03:52:21;19.33;;;15.05;;
66169;SDS011;66757;44.024;20.456;2023-06-22T03:54:47;18.08;;;15.43;;
66169;SDS011;66757;44.024;20.456;2023-06-22T03:57:13;17.45;;;14.80;;
66169;SDS011;66757;44.024;20.456;2023-06-22T03:59:38;20.67;;;17.25;;
66169;SDS011;66757;44.024;20.456;2023-06-22T04:02:04;20.92;;;17.67;;
66169;SDS011;66757;44.024;20.456;2023-06-22T04:04:55;19.65;;;17.60;;
66169;SDS011;66757;44.024;20.456;2023-06-22T04:07:20;19.80;;;17.55;;
66169;SDS011;66757;44.024;20.456;2023-06-22T04:09:46;20.60;;;17.85;;
66169;SDS011;66757;44.024;20.456;2023-06-22T04:12:11;20.02;;;17.65;;
66169;SDS011;66757;44.024;20.456;2023-06-22T04:14:36;20.52;;;16.35;;
66169;SDS011;66757;44.024;20.456;2023-06-22T04:17:02;18.98;;;14.95;;
66169;SDS011;66757;44.024;20.456;2023-06-22T04:19:27;18.15;;;16.05;;
66169;SDS011;66757;44.024;20.456;2023-06-22T04:21:53;19.35;;;16.23;;
66169;SDS011;66757;44.024;20.456;2023-06-22T04:24:18;21.42;;;15.88;;
66169;SDS011;66757;44.024;20.456;2023-06-22T04:26:44;17.90;;;15.52;;
66169;SDS011;66757;44.024;20.456;2023-06-22T04:29:10;16.05;;;14.35;;
66169;SDS011;66757;44.024;20.456;2023-06-22T04:31:36;18.98;;;16.25;;
66169;SDS011;66757;44.024;20.456;2023-06-22T04:34:06;16.48;;;14.50;;
66169;SDS011;66757;44.024;20.456;2023-06-22T04:36:38;16.98;;;15.35;;
66169;SDS011;66757;44.024;20.456;2023-06-22T04:39:11;17.10;;;15.20;;
66169;SDS011;66757;44.024;20.456;2023-06-22T04:41:40;18.60;;;14.57;;
66169;SDS011;66757;44.024;20.456;2023-06-22T04:44:12;23.52;;;16.02;;
66169;SDS011;66757;44.024;20.456;2023-06-22T04:46:39;16.98;;;15.23;;
66169;SDS011;66757;44.024;20.456;2023-06-22T04:49:08;16.63;;;14.93;;
66169;SDS011;66757;44.024;20.456;2023-06-22T04:51:40;18.90;;;15.68;;
66169;SDS011;66757;44.024;20.456;2023-06-22T04:54:07;17.70;;;15.57;;
66169;SDS011;66757;44.024;20.456;2023-06-22T04:56:33;17.58;;;15.57;;
66169;SDS011;66757;44.024;20.456;2023-06-22T04:58:59;23.67;;;16.30;;
66169;SDS011;66757;44.024;20.456;2023-06-22T05:01:25;19.48;;;16.10;;
66169;SDS011;66757;44.024;20.456;2023-06-22T05:03:51;20.73;;;15.77;;
66169;SDS011;66757;44.024;20.456;2023-06-22T05:06:21;17.67;;;15.77;;
66169;SDS011;66757;44.024;20.456;2023-06-22T05:08:58;16.63;;;15.02;;
66169;SDS011;66757;44.024;20.456;2023-06-22T05:11:27;17.15;;;15.45;;
66169;SDS011;66757;44.024;20.456;2023-06-22T05:13:53;20.00;;;15.23;;
66169;SDS011;66757;44.024;20.456;2023-06-22T05:16:19;16.10;;;14.57;;
66169;SDS011;66757;44.024;20.456;2023-06-22T05:18:55;17.23;;;15.43;;
66169;SDS011;66757;44.024;20.456;2023-06-22T05:21:21;16.85;;;14.93;;
66169;SDS011;66757;44.024;20.456;2023-06-22T05:23:48;18.23;;;14.45;;
66169;SDS011;66757;44.024;20.456;2023-06-22T05:26:14;16.67;;;13.45;;
66169;SDS011;66757;44.024;20.456;2023-06-22T05:28:39;15.77;;;14.00;;
66169;SDS011;66757;44.024;20.456;2023-06-22T05:31:05;16.27;;;14.25;;
66169;SDS011;66757;44.024;20.456;2023-06-22T05:33:30;18.08;;;14.80;;
66169;SDS011;66757;44.024;20.456;2023-06-22T05:35:56;17.08;;;15.10;;
66169;SDS011;66757;44.024;20.456;2023-06-22T05:38:21;22.10;;;15.13;;
66169;SDS011;66757;44.024;20.456;2023-06-22T05:40:46;19.10;;;14.27;;
66169;SDS011;66757;44.024;20.456;2023-06-22T05:43:12;16.05;;;14.32;;
66169;SDS011;66757;44.024;20.456;2023-06-22T05:45:38;18.02;;;14.07;;
66169;SDS011;66757;44.024;20.456;2023-06-22T05:48:04;17.00;;;14.43;;
66169;SDS011;66757;44.024;20.456;2023-06-22T05:50:30;20.33;;;15.38;;
66169;SDS011;66757;44.024;20.456;2023-06-22T05:52:56;27.75;;;15.40;;
66169;SDS011;66757;44.024;20.456;2023-06-22T05:55:21;22.52;;;15.20;;
66169;SDS011;66757;44.024;20.456;2023-06-22T05:57:46;20.88;;;14.77;;
66169;SDS011;66757;44.024;20.456;2023-06-22T06:00:12;20.83;;;15.50;;
66169;SDS011;66757;44.024;20.456;2023-06-22T06:02:38;22.73;;;16.38;;
66169;SDS011;66757;44.024;20.456;2023-06-22T06:05:09;18.60;;;16.38;;
66169;SDS011;66757;44.024;20.456;2023-06-22T06:07:35;27.92;;;16.77;;
66169;SDS011;66757;44.024;20.456;2023-06-22T06:10:02;17.05;;;15.30;;
66169;SDS011;66757;44.024;20.456;2023-06-22T06:12:29;19.95;;;14.88;;
66169;SDS011;66757;44.024;20.456;2023-06-22T06:14:55;20.70;;;15.80;;
66169;SDS011;66757;44.024;20.456;2023-06-22T06:17:21;20.75;;;15.43;;
66169;SDS011;66757;44.024;20.456;2023-06-22T06:19:47;22.55;;;15.15;;
66169;SDS011;66757;44.024;20.456;2023-06-22T06:24:37;21.80;;;15.93;;
66169;SDS011;66757;44.024;20.456;2023-06-22T06:27:03;18.25;;;15.57;;
66169;SDS011;66757;44.024;20.456;2023-06-22T06:29:30;17.58;;;15.35;;
66169;SDS011;66757;44.024;20.456;2023-06-22T06:31:56;18.05;;;15.70;;
66169;SDS011;66757;44.024;20.456;2023-06-22T06:34:22;17.98;;;15.82;;
66169;SDS011;66757;44.024;20.456;2023-06-22T06:36:47;18.48;;;16.27;;
66169;SDS011;66757;44.024;20.456;2023-06-22T06:39:13;16.73;;;14.93;;
66169;SDS011;66757;44.024;20.456;2023-06-22T06:41:38;19.40;;;16.25;;
66169;SDS011;66757;44.024;20.456;2023-06-22T06:44:04;17.45;;;15.43;;
66169;SDS011;66757;44.024;20.456;2023-06-22T06:46:29;16.50;;;14.73;;
66169;SDS011;66757;44.024;20.456;2023-06-22T06:48:55;18.83;;;16.05;;
66169;SDS011;66757;44.024;20.456;2023-06-22T06:51:20;16.92;;;14.73;;
66169;SDS011;66757;44.024;20.456;2023-06-22T06:53:46;18.13;;;15.20;;
66169;SDS011;66757;44.024;20.456;2023-06-22T06:56:11;18.60;;;14.95;;
66169;SDS011;66757;44.024;20.456;2023-06-22T06:58:37;16.88;;;15.35;;
66169;SDS011;66757;44.024;20.456;2023-06-22T07:01:06;16.80;;;14.88;;
66169;SDS011;66757;44.024;20.456;2023-06-22T07:03:31;17.25;;;15.50;;
66169;SDS011;66757;44.024;20.456;2023-06-22T07:05:58;15.77;;;14.25;;
66169;SDS011;66757;44.024;20.456;2023-06-22T07:08:23;16.48;;;14.82;;
66169;SDS011;66757;44.024;20.456;2023-06-22T07:10:49;16.70;;;15.07;;
66169;SDS011;66757;44.024;20.456;2023-06-22T07:13:14;16.40;;;14.88;;
66169;SDS011;66757;44.024;20.456;2023-06-22T07:15:40;16.08;;;14.25;;
66169;SDS011;66757;44.024;20.456;2023-06-22T07:18:05;16.40;;;14.52;;
66169;SDS011;66757;44.024;20.456;2023-06-22T07:20:31;16.00;;;14.05;;
66169;SDS011;66757;44.024;20.456;2023-06-22T07:22:56;16.48;;;14.88;;
66169;SDS011;66757;44.024;20.456;2023-06-22T07:25:23;16.17;;;14.55;;
66169;SDS011;66757;44.024;20.456;2023-06-22T07:28:04;15.57;;;13.98;;
66169;SDS011;66757;44.024;20.456;2023-06-22T07:30:32;16.40;;;14.68;;
66169;SDS011;66757;44.024;20.456;2023-06-22T07:32:58;16.80;;;15.10;;
66169;SDS011;66757;44.024;20.456;2023-06-22T07:35:24;16.02;;;14.52;;
66169;SDS011;66757;44.024;20.456;2023-06-22T07:37:50;15.82;;;14.35;;
66169;SDS011;66757;44.024;20.456;2023-06-22T07:40:15;15.10;;;13.63;;
66169;SDS011;66757;44.024;20.456;2023-06-22T07:42:41;14.38;;;12.98;;
66169;SDS011;66757;44.024;20.456;2023-06-22T07:45:08;14.02;;;12.68;;
66169;SDS011;66757;44.024;20.456;2023-06-22T07:47:34;13.15;;;11.98;;
66169;SDS011;66757;44.024;20.456;2023-06-22T07:50:00;15.00;;;13.70;;
66169;SDS011;66757;44.024;20.456;2023-06-22T07:52:30;15.10;;;12.95;;
66169;SDS011;66757;44.024;20.456;2023-06-22T07:54:56;14.23;;;12.45;;
66169;SDS011;66757;44.024;20.456;2023-06-22T07:57:21;14.45;;;12.45;;
66169;SDS011;66757;44.024;20.456;2023-06-22T07:59:47;13.80;;;12.45;;
66169;SDS011;66757;44.024;20.456;2023-06-22T08:02:12;13.98;;;12.25;;
66169;SDS011;66757;44.024;20.456;2023-06-22T08:04:38;14.40;;;13.10;;
66169;SDS011;66757;44.024;20.456;2023-06-22T08:07:03;14.88;;;12.52;;
66169;SDS011;66757;44.024;20.456;2023-06-22T08:09:30;14.10;;;12.30;;
66169;SDS011;66757;44.024;20.456;2023-06-22T08:11:56;13.60;;;12.27;;
66169;SDS011;66757;44.024;20.456;2023-06-22T08:14:30;13.57;;;12.20;;
66169;SDS011;66757;44.024;20.456;2023-06-22T08:16:56;13.30;;;11.57;;
66169;SDS011;66757;44.024;20.456;2023-06-22T08:19:21;11.27;;;10.38;;
66169;SDS011;66757;44.024;20.456;2023-06-22T08:21:47;11.57;;;10.60;;
66169;SDS011;66757;44.024;20.456;2023-06-22T08:24:12;11.43;;;10.30;;
66169;SDS011;66757;44.024;20.456;2023-06-22T08:26:38;11.48;;;10.48;;
66169;SDS011;66757;44.024;20.456;2023-06-22T08:29:03;11.32;;;10.32;;
66169;SDS011;66757;44.024;20.456;2023-06-22T08:31:29;10.95;;;9.38;;
66169;SDS011;66757;44.024;20.456;2023-06-22T08:33:55;11.32;;;9.95;;
66169;SDS011;66757;44.024;20.456;2023-06-22T08:36:21;10.68;;;9.68;;
66169;SDS011;66757;44.024;20.456;2023-06-22T08:38:47;10.75;;;9.73;;
66169;SDS011;66757;44.024;20.456;2023-06-22T08:41:16;9.73;;;8.60;;
66169;SDS011;66757;44.024;20.456;2023-06-22T08:43:42;13.27;;;9.43;;
66169;SDS011;66757;44.024;20.456;2023-06-22T08:46:09;9.10;;;8.13;;
66169;SDS011;66757;44.024;20.456;2023-06-22T08:48:35;8.45;;;7.75;;
66169;SDS011;66757;44.024;20.456;2023-06-22T08:51:01;20.42;;;8.25;;
66169;SDS011;66757;44.024;20.456;2023-06-22T08:53:27;8.43;;;7.72;;
66169;SDS011;66757;44.024;20.456;2023-06-22T08:55:53;6.82;;;6.15;;
66169;SDS011;66757;44.024;20.456;2023-06-22T08:58:18;7.65;;;6.68;;
66169;SDS011;66757;44.024;20.456;2023-06-22T09:00:45;7.32;;;6.43;;
66169;SDS011;66757;44.024;20.456;2023-06-22T09:03:10;7.93;;;7.22;;
66169;SDS011;66757;44.024;20.456;2023-06-22T09:05:37;7.15;;;6.55;;
66169;SDS011;66757;44.024;20.456;2023-06-22T09:08:02;8.18;;;7.25;;
66169;SDS011;66757;44.024;20.456;2023-06-22T09:10:28;8.25;;;7.55;;
66169;SDS011;66757;44.024;20.456;2023-06-22T09:12:53;8.10;;;6.85;;
66169;SDS011;66757;44.024;20.456;2023-06-22T09:15:19;7.93;;;7.20;;
66169;SDS011;66757;44.024;20.456;2023-06-22T09:17:44;6.80;;;6.13;;
66169;SDS011;66757;44.024;20.456;2023-06-22T09:20:11;4.82;;;4.43;;
66169;SDS011;66757;44.024;20.456;2023-06-22T09:22:37;6.80;;;6.10;;
66169;SDS011;66757;44.024;20.456;2023-06-22T09:25:02;6.63;;;6.13;;
66169;SDS011;66757;44.024;20.456;2023-06-22T09:27:28;7.28;;;6.28;;
66169;SDS011;66757;44.024;20.456;2023-06-22T09:29:54;7.63;;;6.90;;
66169;SDS011;66757;44.024;20.456;2023-06-22T09:32:19;7.97;;;7.28;;
66169;SDS011;66757;44.024;20.456;2023-06-22T09:34:45;6.43;;;5.82;;
66169;SDS011;66757;44.024;20.456;2023-06-22T09:37:10;5.70;;;5.30;;
66169;SDS011;66757;44.024;20.456;2023-06-22T09:39:36;3.92;;;3.70;;
66169;SDS011;66757;44.024;20.456;2023-06-22T09:42:02;4.65;;;4.25;;
66169;SDS011;66757;44.024;20.456;2023-06-22T09:44:27;5.93;;;5.05;;
66169;SDS011;66757;44.024;20.456;2023-06-22T09:46:53;5.80;;;5.25;;
66169;SDS011;66757;44.024;20.456;2023-06-22T09:49:18;6.43;;;5.22;;
66169;SDS011;66757;44.024;20.456;2023-06-22T09:51:44;6.70;;;5.88;;
66169;SDS011;66757;44.024;20.456;2023-06-22T09:54:09;6.10;;;5.10;;
66169;SDS011;66757;44.024;20.456;2023-06-22T09:56:35;5.88;;;4.38;;
66169;SDS011;66757;44.024;20.456;2023-06-22T09:59:02;5.13;;;4.40;;
66169;SDS011;66757;44.024;20.456;2023-06-22T10:01:28;5.53;;;4.97;;
66169;SDS011;66757;44.024;20.456;2023-06-22T10:03:53;5.97;;;5.50;;
66169;SDS011;66757;44.024;20.456;2023-06-22T10:06:22;5.30;;;4.75;;
66169;SDS011;66757;44.024;20.456;2023-06-22T10:08:48;5.00;;;4.70;;
66169;SDS011;66757;44.024;20.456;2023-06-22T10:11:15;4.95;;;4.55;;
66169;SDS011;66757;44.024;20.456;2023-06-22T10:13:40;5.95;;;5.18;;
66169;SDS011;66757;44.024;20.456;2023-06-22T10:16:05;4.57;;;4.05;;
66169;SDS011;66757;44.024;20.456;2023-06-22T10:18:32;4.97;;;4.57;;
66169;SDS011;66757;44.024;20.456;2023-06-22T10:20:57;5.72;;;5.22;;
66169;SDS011;66757;44.024;20.456;2023-06-22T10:23:23;5.65;;;5.20;;
66169;SDS011;66757;44.024;20.456;2023-06-22T10:25:48;7.07;;;4.63;;
66169;SDS011;66757;44.024;20.456;2023-06-22T10:28:14;6.43;;;5.25;;
66169;SDS011;66757;44.024;20.456;2023-06-22T10:30:40;5.40;;;4.80;;
66169;SDS011;66757;44.024;20.456;2023-06-22T10:33:09;5.32;;;4.88;;
66169;SDS011;66757;44.024;20.456;2023-06-22T10:35:36;5.50;;;4.93;;
66169;SDS011;66757;44.024;20.456;2023-06-22T10:38:03;5.22;;;4.70;;
66169;SDS011;66757;44.024;20.456;2023-06-22T10:40:28;4.70;;;4.40;;
66169;SDS011;66757;44.024;20.456;2023-06-22T10:42:54;4.93;;;4.30;;
66169;SDS011;66757;44.024;20.456;2023-06-22T10:45:20;5.00;;;4.65;;
66169;SDS011;66757;44.024;20.456;2023-06-22T10:47:45;5.25;;;4.50;;
66169;SDS011;66757;44.024;20.456;2023-06-22T10:50:11;3.90;;;3.70;;
66169;SDS011;66757;44.024;20.456;2023-06-22T10:52:37;4.60;;;4.25;;
66169;SDS011;66757;44.024;20.456;2023-06-22T10:55:02;7.50;;;5.25;;
66169;SDS011;66757;44.024;20.456;2023-06-22T10:57:28;4.70;;;4.28;;
66169;SDS011;66757;44.024;20.456;2023-06-22T10:59:54;4.60;;;4.28;;
66169;SDS011;66757;44.024;20.456;2023-06-22T11:02:19;4.97;;;4.68;;
66169;SDS011;66757;44.024;20.456;2023-06-22T11:04:45;4.90;;;4.50;;
66169;SDS011;66757;44.024;20.456;2023-06-22T11:07:11;5.03;;;4.68;;
66169;SDS011;66757;44.024;20.456;2023-06-22T11:09:36;15.32;;;5.07;;
66169;SDS011;66757;44.024;20.456;2023-06-22T11:12:03;4.72;;;4.40;;
66169;SDS011;66757;44.024;20.456;2023-06-22T11:14:29;5.88;;;5.38;;
66169;SDS011;66757;44.024;20.456;2023-06-22T11:16:54;8.02;;;6.07;;
66169;SDS011;66757;44.024;20.456;2023-06-22T11:19:21;7.60;;;6.13;;
66169;SDS011;66757;44.024;20.456;2023-06-22T11:21:46;5.95;;;5.20;;
66169;SDS011;66757;44.024;20.456;2023-06-22T11:24:12;6.03;;;5.47;;
66169;SDS011;66757;44.024;20.456;2023-06-22T11:26:37;8.25;;;6.15;;
66169;SDS011;66757;44.024;20.456;2023-06-22T11:29:03;6.50;;;5.90;;
66169;SDS011;66757;44.024;20.456;2023-06-22T11:31:32;6.43;;;5.82;;
66169;SDS011;66757;44.024;20.456;2023-06-22T11:33:59;5.60;;;5.20;;
66169;SDS011;66757;44.024;20.456;2023-06-22T11:36:24;5.30;;;4.80;;
66169;SDS011;66757;44.024;20.456;2023-06-22T11:38:50;4.88;;;4.47;;
66169;SDS011;66757;44.024;20.456;2023-06-22T11:41:16;5.30;;;4.28;;
66169;SDS011;66757;44.024;20.456;2023-06-22T11:43:41;4.15;;;3.75;;
66169;SDS011;66757;44.024;20.456;2023-06-22T11:46:07;11.30;;;3.67;;
66169;SDS011;66757;44.024;20.456;2023-06-22T11:48:32;5.47;;;4.10;;
66169;SDS011;66757;44.024;20.456;2023-06-22T11:50:58;3.88;;;3.58;;
66169;SDS011;66757;44.024;20.456;2023-06-22T11:53:24;5.47;;;4.97;;
66169;SDS011;66757;44.024;20.456;2023-06-22T11:55:51;6.40;;;4.07;;
66169;SDS011;66757;44.024;20.456;2023-06-22T11:58:17;4.07;;;3.78;;
66169;SDS011;66757;44.024;20.456;2023-06-22T12:00:43;7.50;;;4.18;;
66169;SDS011;66757;44.024;20.456;2023-06-22T12:03:10;5.25;;;4.03;;
66169;SDS011;66757;44.024;20.456;2023-06-22T12:05:36;4.30;;;3.90;;
66169;SDS011;66757;44.024;20.456;2023-06-22T12:08:01;6.10;;;3.95;;
66169;SDS011;66757;44.024;20.456;2023-06-22T12:10:27;4.18;;;3.50;;
66169;SDS011;66757;44.024;20.456;2023-06-22T12:12:56;4.20;;;3.83;;
66169;SDS011;66757;44.024;20.456;2023-06-22T12:15:22;3.97;;;3.58;;
66169;SDS011;66757;44.024;20.456;2023-06-22T12:17:48;8.95;;;3.95;;
66169;SDS011;66757;44.024;20.456;2023-06-22T12:20:13;5.65;;;3.97;;
66169;SDS011;66757;44.024;20.456;2023-06-22T12:22:40;4.53;;;3.90;;
66169;SDS011;66757;44.024;20.456;2023-06-22T12:25:06;4.15;;;3.75;;
66169;SDS011;66757;44.024;20.456;2023-06-22T12:27:32;4.97;;;3.85;;
66169;SDS011;66757;44.024;20.456;2023-06-22T12:29:58;3.75;;;3.22;;
66169;SDS011;66757;44.024;20.456;2023-06-22T12:32:23;5.78;;;3.70;;
66169;SDS011;66757;44.024;20.456;2023-06-22T12:34:49;3.85;;;3.50;;
66169;SDS011;66757;44.024;20.456;2023-06-22T12:37:15;3.60;;;3.03;;
66169;SDS011;66757;44.024;20.456;2023-06-22T12:39:40;12.75;;;3.88;;
66169;SDS011;66757;44.024;20.456;2023-06-22T12:42:06;3.80;;;3.50;;
66169;SDS011;66757;44.024;20.456;2023-06-22T12:44:34;4.25;;;3.10;;
66169;SDS011;66757;44.024;20.456;2023-06-22T12:47:03;5.10;;;3.30;;
66169;SDS011;66757;44.024;20.456;2023-06-22T12:49:28;3.17;;;2.90;;
66169;SDS011;66757;44.024;20.456;2023-06-22T12:51:54;4.25;;;3.47;;
66169;SDS011;66757;44.024;20.456;2023-06-22T12:54:19;5.60;;;3.38;;
66169;SDS011;66757;44.024;20.456;2023-06-22T12:56:45;4.70;;;3.05;;
66169;SDS011;66757;44.024;20.456;2023-06-22T12:59:10;4.50;;;3.10;;
66169;SDS011;66757;44.024;20.456;2023-06-22T13:01:36;5.40;;;3.25;;
66169;SDS011;66757;44.024;20.456;2023-06-22T13:04:02;5.57;;;3.67;;
66169;SDS011;66757;44.024;20.456;2023-06-22T13:06:27;5.18;;;2.97;;
66169;SDS011;66757;44.024;20.456;2023-06-22T13:08:53;4.50;;;3.47;;
66169;SDS011;66757;44.024;20.456;2023-06-22T13:11:18;4.60;;;3.05;;
66169;SDS011;66757;44.024;20.456;2023-06-22T13:13:44;3.08;;;2.88;;
66169;SDS011;66757;44.024;20.456;2023-06-22T13:16:10;5.18;;;3.30;;
66169;SDS011;66757;44.024;20.456;2023-06-22T13:18:36;3.15;;;2.78;;
66169;SDS011;66757;44.024;20.456;2023-06-22T13:21:01;4.85;;;2.95;;
66169;SDS011;66757;44.024;20.456;2023-06-22T13:23:27;3.65;;;3.35;;
66169;SDS011;66757;44.024;20.456;2023-06-22T13:25:53;3.17;;;2.83;;
66169;SDS011;66757;44.024;20.456;2023-06-22T13:28:18;5.32;;;3.67;;
66169;SDS011;66757;44.024;20.456;2023-06-22T13:30:44;7.03;;;3.38;;
66169;SDS011;66757;44.024;20.456;2023-06-22T13:33:12;4.65;;;3.28;;
66169;SDS011;66757;44.024;20.456;2023-06-22T13:35:38;3.88;;;3.42;;
66169;SDS011;66757;44.024;20.456;2023-06-22T13:38:03;3.75;;;3.45;;
66169;SDS011;66757;44.024;20.456;2023-06-22T13:40:30;3.80;;;3.42;;
66169;SDS011;66757;44.024;20.456;2023-06-22T13:42:57;4.35;;;2.97;;
66169;SDS011;66757;44.024;20.456;2023-06-22T13:45:22;3.67;;;3.10;;
66169;SDS011;66757;44.024;20.456;2023-06-22T13:47:48;4.13;;;3.50;;
66169;SDS011;66757;44.024;20.456;2023-06-22T13:50:13;5.15;;;3.22;;
66169;SDS011;66757;44.024;20.456;2023-06-22T13:52:39;7.13;;;3.55;;
66169;SDS011;66757;44.024;20.456;2023-06-22T13:55:05;4.88;;;3.33;;
66169;SDS011;66757;44.024;20.456;2023-06-22T13:57:32;4.57;;;3.65;;
66169;SDS011;66757;44.024;20.456;2023-06-22T13:59:59;3.78;;;3.35;;
66169;SDS011;66757;44.024;20.456;2023-06-22T14:02:25;7.45;;;5.25;;
66169;SDS011;66757;44.024;20.456;2023-06-22T14:04:51;4.10;;;3.47;;
66169;SDS011;66757;44.024;20.456;2023-06-22T14:07:17;4.82;;;3.70;;
66169;SDS011;66757;44.024;20.456;2023-06-22T14:09:44;4.20;;;3.80;;
66169;SDS011;66757;44.024;20.456;2023-06-22T14:12:10;5.50;;;3.53;;
66169;SDS011;66757;44.024;20.456;2023-06-22T14:14:36;3.53;;;3.22;;
66169;SDS011;66757;44.024;20.456;2023-06-22T14:17:01;5.28;;;3.97;;
66169;SDS011;66757;44.024;20.456;2023-06-22T14:19:27;4.32;;;3.08;;
66169;SDS011;66757;44.024;20.456;2023-06-22T14:21:52;6.28;;;3.58;;
66169;SDS011;66757;44.024;20.456;2023-06-22T14:24:18;6.95;;;3.58;;